Pleasant Ridge, Louisiana
Current Conditions -  °F | °C
As of 10:53 AM on Saturday 25 Oct 2014 (Local Time) from KESF Reporting Station
Clear Clear  
Wind Chill: 71°   Ceiling: Unl
Heat Index: 71°   Visibility: 10mi
Dew Point: 56°   Wind: 5mph
Humidity: 59%   Direction: NA
Pressure: 30.18"   Gusts: NA
Location:  31.8657°N, 92.2616°W
Report Text: KESF 251553Z AUTO VRB04KT 10SM CLR 22/13 A3018 RMK AO2 SLP220 T02170133
Loading
Personal Weather Stations






























Interactive Weather Map
Tropical Storm Tracking
New forecast layout! Learn more

10-Day Weather Forecast

Advertisements
Track Severe Weather on mobile